createdAt,value
2022-10-22T00:00:08.691Z,4.82
2022-10-22T00:02:53.769Z,4.75
2022-10-22T00:05:38.841Z,4.30
2022-10-22T00:08:23.604Z,4.75
2022-10-22T00:11:17.399Z,4.20
2022-10-22T00:14:02.238Z,3.88
2022-10-22T00:16:46.991Z,3.63
2022-10-22T00:19:32.072Z,4.50
2022-10-22T00:22:17.030Z,4.57
2022-10-22T00:25:02.074Z,4.40
2022-10-22T00:27:47.234Z,3.88
2022-10-22T00:30:32.331Z,4.80
2022-10-22T00:33:17.254Z,3.90
2022-10-22T00:36:02.248Z,4.10
2022-10-22T00:38:47.360Z,4.30
2022-10-22T00:41:32.600Z,4.85
2022-10-22T00:44:54.934Z,4.10
2022-10-22T00:47:49.747Z,3.90
2022-10-22T00:50:45.414Z,4.60
2022-10-22T00:53:43.679Z,4.60
2022-10-22T00:56:28.974Z,4.53
2022-10-22T00:59:15.234Z,4.57
2022-10-22T01:02:00.007Z,4.30
2022-10-22T01:04:45.283Z,4.43
2022-10-22T01:07:30.373Z,4.38
2022-10-22T01:10:32.914Z,4.60
2022-10-22T01:13:38.587Z,4.00
2022-10-22T01:17:01.849Z,4.33
2022-10-22T01:19:52.356Z,4.28
2022-10-22T01:22:44.269Z,4.20
2022-10-22T01:25:36.937Z,4.50
2022-10-22T01:28:48.249Z,4.13
2022-10-22T01:31:39.019Z,3.83
2022-10-22T01:34:25.608Z,3.97
2022-10-22T01:37:13.873Z,3.90
2022-10-22T01:40:00.680Z,4.07
2022-10-22T01:43:01.087Z,4.00
2022-10-22T01:45:53.808Z,3.97
2022-10-22T01:49:04.981Z,3.97
2022-10-22T01:52:09.035Z,4.07
2022-10-22T01:55:17.664Z,3.55
2022-10-22T01:58:54.458Z,3.28
2022-10-22T02:01:48.424Z,3.73
2022-10-22T02:04:41.246Z,3.78
2022-10-22T02:07:31.521Z,4.00
2022-10-22T02:10:18.238Z,3.97
2022-10-22T02:13:04.159Z,3.67
2022-10-22T02:15:51.612Z,3.90
2022-10-22T02:18:39.946Z,3.60
2022-10-22T02:21:24.979Z,3.72
2022-10-22T02:24:10.072Z,3.72
2022-10-22T02:27:12.433Z,3.67
2022-10-22T02:30:03.618Z,3.73
2022-10-22T02:32:57.891Z,3.80
2022-10-22T02:35:44.453Z,3.90
2022-10-22T02:38:30.342Z,4.10
2022-10-22T02:41:16.934Z,3.75
2022-10-22T02:44:02.946Z,3.47
2022-10-22T02:46:48.725Z,3.83
2022-10-22T02:49:33.883Z,3.42
2022-10-22T02:52:18.986Z,3.80
2022-10-22T02:55:05.760Z,3.63
2022-10-22T02:57:50.623Z,3.67
2022-10-22T03:00:35.948Z,3.47
2022-10-22T03:03:20.758Z,3.70
2022-10-22T03:06:05.914Z,3.70
2022-10-22T03:08:50.726Z,3.50
2022-10-22T03:11:35.824Z,3.40
2022-10-22T03:14:20.833Z,3.72
2022-10-22T03:17:06.038Z,3.42
2022-10-22T03:19:51.195Z,3.63
2022-10-22T03:22:39.325Z,3.47
2022-10-22T03:25:27.115Z,3.93
2022-10-22T03:28:15.392Z,3.80
2022-10-22T03:31:00.614Z,3.53
2022-10-22T03:33:46.022Z,3.50
2022-10-22T03:36:32.511Z,3.17
2022-10-22T03:39:19.079Z,3.27
2022-10-22T03:42:06.469Z,3.30
2022-10-22T03:44:51.659Z,3.05
2022-10-22T03:47:37.261Z,3.30
2022-10-22T03:50:22.514Z,3.10
2022-10-22T03:53:10.389Z,3.13
2022-10-22T03:55:55.246Z,3.10
2022-10-22T03:58:41.363Z,3.15
2022-10-22T04:01:27.286Z,3.38
2022-10-22T04:04:12.382Z,3.47
2022-10-22T04:06:57.459Z,3.27
2022-10-22T04:09:42.650Z,3.20
2022-10-22T04:12:27.643Z,3.63
2022-10-22T04:15:12.749Z,3.58
2022-10-22T04:17:57.858Z,3.13
2022-10-22T04:20:42.922Z,3.40
2022-10-22T04:23:27.859Z,3.78
2022-10-22T04:26:12.940Z,3.90
2022-10-22T04:28:57.988Z,3.45
2022-10-22T04:31:43.232Z,3.90
2022-10-22T04:34:28.746Z,3.53
2022-10-22T04:37:13.697Z,3.95
2022-10-22T04:39:58.660Z,3.90
2022-10-22T04:42:43.776Z,3.97
2022-10-22T04:45:28.579Z,3.60
2022-10-22T04:48:13.798Z,3.80
2022-10-22T04:50:58.986Z,3.80
2022-10-22T04:53:45.170Z,3.55
2022-10-22T04:56:31.803Z,3.83
2022-10-22T04:59:16.786Z,4.20
2022-10-22T05:02:01.873Z,4.03
2022-10-22T05:04:46.753Z,4.35
2022-10-22T05:07:31.767Z,3.90
2022-10-22T05:10:16.868Z,3.90
2022-10-22T05:13:01.976Z,3.78
2022-10-22T05:15:47.051Z,3.70
2022-10-22T05:18:35.349Z,3.60
2022-10-22T05:21:21.551Z,3.85
2022-10-22T05:24:07.272Z,3.97
2022-10-22T05:26:53.951Z,3.70
2022-10-22T05:29:38.828Z,3.50
2022-10-22T05:32:23.676Z,3.60
2022-10-22T05:35:09.049Z,3.55
2022-10-22T05:37:54.029Z,3.53
2022-10-22T05:40:38.907Z,3.42
2022-10-22T05:43:23.963Z,3.23
2022-10-22T05:46:12.306Z,3.25
2022-10-22T05:48:59.586Z,3.13
2022-10-22T05:51:44.523Z,3.45
2022-10-22T05:54:29.478Z,3.30
2022-10-22T05:57:14.309Z,3.40
2022-10-22T05:59:59.465Z,3.20
2022-10-22T06:02:44.567Z,3.40
2022-10-22T06:05:29.713Z,3.40
2022-10-22T06:08:18.246Z,3.33
2022-10-22T06:11:05.139Z,3.13
2022-10-22T06:13:51.278Z,2.97
2022-10-22T06:16:36.006Z,2.97
2022-10-22T06:19:22.947Z,3.22
2022-10-22T06:22:08.088Z,3.80
2022-10-22T06:24:53.130Z,4.33
2022-10-22T06:27:38.280Z,3.97
2022-10-22T06:30:23.208Z,3.95
2022-10-22T06:33:08.371Z,2.83
2022-10-22T06:35:53.886Z,3.13
2022-10-22T06:38:39.922Z,2.93
2022-10-22T06:41:28.592Z,2.45
2022-10-22T06:44:16.591Z,2.55
2022-10-22T06:47:02.100Z,2.50
2022-10-22T06:49:48.826Z,2.50
2022-10-22T06:52:33.689Z,2.77
2022-10-22T06:55:18.524Z,2.85
2022-10-22T06:58:03.784Z,3.58
2022-10-22T07:00:48.970Z,3.35
2022-10-22T07:03:34.305Z,3.75
2022-10-22T07:06:19.582Z,3.33
2022-10-22T07:09:04.518Z,3.40
2022-10-22T07:11:49.474Z,3.53
2022-10-22T07:14:34.511Z,2.90
2022-10-22T07:17:19.490Z,3.38
2022-10-22T07:20:05.182Z,3.53
2022-10-22T07:22:50.286Z,3.28
2022-10-22T07:25:35.400Z,3.67
2022-10-22T07:28:20.511Z,3.35
2022-10-22T07:31:06.379Z,3.42
2022-10-22T07:33:51.690Z,3.30
2022-10-22T07:36:36.966Z,3.13
2022-10-22T07:39:21.817Z,3.88
2022-10-22T07:42:07.076Z,3.28
2022-10-22T07:44:51.672Z,3.25
2022-10-22T07:47:36.777Z,2.93
2022-10-22T07:50:21.648Z,2.55
2022-10-22T07:53:06.841Z,2.90
2022-10-22T07:55:52.528Z,2.53
2022-10-22T07:58:37.661Z,2.28
2022-10-22T08:01:22.611Z,2.50
2022-10-22T08:04:10.132Z,2.13
2022-10-22T08:06:54.947Z,2.47
2022-10-22T08:09:39.982Z,2.40
2022-10-22T08:12:25.004Z,2.42
2022-10-22T08:15:10.654Z,2.43
2022-10-22T08:17:55.530Z,1.90
2022-10-22T08:20:40.932Z,2.22
2022-10-22T08:23:28.421Z,2.58
2022-10-22T08:26:13.962Z,1.90
2022-10-22T08:28:58.693Z,2.30
2022-10-22T08:31:43.858Z,1.90
2022-10-22T08:34:30.139Z,1.73
2022-10-22T08:37:16.943Z,1.77
2022-10-22T08:40:01.978Z,1.83
2022-10-22T08:43:11.561Z,1.60
2022-10-22T08:46:27.552Z,1.63
2022-10-22T08:49:37.151Z,1.75
2022-10-22T08:52:24.899Z,1.45
2022-10-22T08:55:14.277Z,1.65
2022-10-22T08:58:15.792Z,1.33
2022-10-22T09:01:05.655Z,1.73
2022-10-22T09:03:59.687Z,2.30
2022-10-22T09:06:44.599Z,2.83
2022-10-22T09:09:36.164Z,2.20
2022-10-22T09:12:24.484Z,2.23
2022-10-22T09:15:13.827Z,2.13
2022-10-22T09:18:36.383Z,2.15
2022-10-22T09:21:33.120Z,2.08
2022-10-22T09:24:38.062Z,2.33
2022-10-22T09:27:28.826Z,1.80
2022-10-22T09:30:20.998Z,1.98
2022-10-22T09:33:05.950Z,2.40
2022-10-22T09:35:54.530Z,2.00
2022-10-22T09:38:44.790Z,2.10
2022-10-22T09:41:30.122Z,1.97
2022-10-22T09:44:15.071Z,2.03
2022-10-22T09:47:00.470Z,2.22
2022-10-22T09:49:45.855Z,1.83
2022-10-22T09:52:30.858Z,2.00
2022-10-22T09:55:18.627Z,2.10
2022-10-22T09:58:04.501Z,2.17
2022-10-22T10:00:56.119Z,1.83
2022-10-22T10:03:41.244Z,2.85
2022-10-22T10:06:26.216Z,2.10
2022-10-22T10:09:20.866Z,2.97
2022-10-22T10:12:14.877Z,1.73
2022-10-22T10:15:06.500Z,1.60
2022-10-22T10:18:17.728Z,2.00
2022-10-22T10:21:24.199Z,1.45
2022-10-22T10:24:24.804Z,1.10
2022-10-22T10:27:19.599Z,1.40
2022-10-22T10:30:20.677Z,1.23
2022-10-22T10:33:13.632Z,0.95
2022-10-22T10:36:17.090Z,1.10
2022-10-22T10:39:12.704Z,1.00
2022-10-22T10:42:00.503Z,0.93
2022-10-22T10:45:06.494Z,1.05
2022-10-22T10:48:22.412Z,0.90
2022-10-22T10:51:21.964Z,1.02
2022-10-22T10:54:27.180Z,0.70
2022-10-22T10:57:49.550Z,0.82
2022-10-22T11:00:49.819Z,0.50
2022-10-22T11:03:53.501Z,0.77
2022-10-22T11:06:39.742Z,0.60
2022-10-22T11:09:30.520Z,0.60
2022-10-22T11:12:23.414Z,0.70
2022-10-22T11:15:25.919Z,0.80
2022-10-22T11:18:23.824Z,0.70
2022-10-22T11:21:11.649Z,0.70
2022-10-22T11:24:16.796Z,0.73
2022-10-22T11:27:07.043Z,0.63
2022-10-22T11:29:59.068Z,0.73
2022-10-22T11:32:48.743Z,0.60
2022-10-22T11:35:40.981Z,0.60
2022-10-22T11:38:27.132Z,0.57
2022-10-22T11:41:15.640Z,0.60
2022-10-22T11:44:23.492Z,0.90
2022-10-22T11:47:18.854Z,0.40
2022-10-22T11:50:25.250Z,0.98
2022-10-22T11:53:13.161Z,0.73
2022-10-22T11:56:21.056Z,0.60
2022-10-22T11:59:34.211Z,1.00
2022-10-22T12:02:41.196Z,0.65
2022-10-22T12:05:26.472Z,1.20
2022-10-22T12:08:23.365Z,0.70
2022-10-22T12:11:10.966Z,0.40
2022-10-22T12:14:16.134Z,0.88
2022-10-22T12:17:15.856Z,0.65
2022-10-22T12:20:14.045Z,0.40
2022-10-22T12:22:59.812Z,0.70
2022-10-22T12:25:44.852Z,0.80
2022-10-22T12:28:29.872Z,0.70
2022-10-22T12:31:17.954Z,0.80
2022-10-22T12:34:03.613Z,0.75
2022-10-22T12:36:51.531Z,0.70
2022-10-22T12:39:36.398Z,0.63
2022-10-22T12:42:23.697Z,0.70
2022-10-22T12:45:09.280Z,0.70
2022-10-22T12:48:00.316Z,1.20
2022-10-22T12:50:50.672Z,0.70
2022-10-22T12:53:39.226Z,0.60
2022-10-22T12:56:27.604Z,0.70
2022-10-22T12:59:20.901Z,0.60
2022-10-22T13:02:19.095Z,0.70
2022-10-22T13:05:20.431Z,0.90
2022-10-22T13:08:16.761Z,0.75
2022-10-22T13:11:08.193Z,1.30
2022-10-22T13:14:02.145Z,1.30
2022-10-22T13:17:42.035Z,3.85
2022-10-22T13:20:27.424Z,1.13
2022-10-22T13:23:24.399Z,1.10
2022-10-22T13:26:14.596Z,0.68
2022-10-22T13:29:01.178Z,0.70
2022-10-22T13:31:49.887Z,0.88
2022-10-22T13:34:36.255Z,0.60
2022-10-22T13:37:21.499Z,0.52
2022-10-22T13:40:13.773Z,0.60
2022-10-22T13:42:58.951Z,0.50
2022-10-22T13:45:45.906Z,0.50
2022-10-22T13:48:31.077Z,0.30
2022-10-22T13:51:20.156Z,0.60
2022-10-22T13:54:13.487Z,0.50
2022-10-22T13:56:58.553Z,0.57
2022-10-22T13:59:43.692Z,0.40
2022-10-22T14:02:28.559Z,0.50
2022-10-22T14:05:14.756Z,0.43
2022-10-22T14:08:00.847Z,0.57
2022-10-22T14:10:46.427Z,0.63
2022-10-22T14:13:31.513Z,0.40
2022-10-22T14:16:23.916Z,0.60
2022-10-22T14:19:15.826Z,0.50
2022-10-22T14:22:00.615Z,0.60
2022-10-22T14:24:46.897Z,0.57
2022-10-22T14:27:32.040Z,0.68
2022-10-22T14:30:20.345Z,0.50
2022-10-22T14:33:21.427Z,0.77
2022-10-22T14:36:06.930Z,0.80
2022-10-22T14:38:51.686Z,0.88
2022-10-22T14:41:37.306Z,1.05
2022-10-22T14:44:23.974Z,0.90
2022-10-22T14:47:08.961Z,0.75
2022-10-22T14:49:54.041Z,1.10
2022-10-22T14:52:39.802Z,1.83
2022-10-22T14:55:27.040Z,1.05
2022-10-22T14:58:12.327Z,1.10
2022-10-22T15:00:57.597Z,0.88
2022-10-22T15:03:42.475Z,1.05
2022-10-22T15:06:27.459Z,1.10
2022-10-22T15:09:12.767Z,0.80
2022-10-22T15:11:58.844Z,0.90
2022-10-22T15:14:43.963Z,0.85
2022-10-22T15:17:28.891Z,1.02
2022-10-22T15:20:14.002Z,1.00
2022-10-22T15:22:59.351Z,0.73
2022-10-22T15:25:44.052Z,0.60
2022-10-22T15:28:29.066Z,0.90
2022-10-22T15:31:14.643Z,0.98
2022-10-22T15:34:01.888Z,1.55
2022-10-22T15:36:47.471Z,1.90
2022-10-22T15:39:32.709Z,1.43
2022-10-22T15:42:18.842Z,1.25
2022-10-22T15:45:04.413Z,1.63
2022-10-22T15:47:50.291Z,1.20
2022-10-22T15:50:38.324Z,1.10
2022-10-22T15:53:23.061Z,1.30
2022-10-22T15:56:09.215Z,1.40
2022-10-22T15:59:00.489Z,1.77
2022-10-22T16:01:45.886Z,2.05
2022-10-22T16:04:30.811Z,2.20
2022-10-22T16:07:17.324Z,2.23
2022-10-22T16:10:07.474Z,2.22
2022-10-22T16:12:54.396Z,2.10
2022-10-22T16:15:39.493Z,2.30
2022-10-22T16:18:24.439Z,2.50
2022-10-22T16:21:14.483Z,3.00
2022-10-22T16:24:05.932Z,3.45
2022-10-22T16:26:53.042Z,3.58
2022-10-22T16:29:39.239Z,3.83
2022-10-22T16:32:24.223Z,3.95
2022-10-22T16:35:09.698Z,3.90
2022-10-22T16:37:54.773Z,3.67
2022-10-22T16:40:40.035Z,4.25
2022-10-22T16:43:25.156Z,4.78
2022-10-22T16:46:11.427Z,3.55
2022-10-22T16:48:57.048Z,3.27
2022-10-22T16:51:42.007Z,3.30
2022-10-22T16:54:27.352Z,3.47
2022-10-22T16:57:13.584Z,3.60
2022-10-22T16:59:58.624Z,2.90
2022-10-22T17:02:43.810Z,2.60
2022-10-22T17:05:29.353Z,2.92
2022-10-22T17:08:14.500Z,3.00
2022-10-22T17:11:07.695Z,3.47
2022-10-22T17:13:54.166Z,3.75
2022-10-22T17:16:39.072Z,4.10
2022-10-22T17:19:24.297Z,4.65
2022-10-22T17:22:09.396Z,4.35
2022-10-22T17:25:10.812Z,4.45
2022-10-22T17:27:56.148Z,3.67
2022-10-22T17:30:41.771Z,4.97
2022-10-22T17:33:27.008Z,4.40
2022-10-22T17:36:13.584Z,4.28
2022-10-22T17:39:01.448Z,4.00
2022-10-22T17:41:47.307Z,5.10
2022-10-22T17:44:32.276Z,4.53
2022-10-22T17:47:17.467Z,4.82
2022-10-22T17:50:02.453Z,4.70
2022-10-22T17:52:47.349Z,5.60
2022-10-22T17:55:34.658Z,11.25
2022-10-22T17:58:19.539Z,5.73
2022-10-22T18:01:05.583Z,5.90
2022-10-22T18:03:51.270Z,6.18
2022-10-22T18:06:36.643Z,5.82
2022-10-22T18:09:21.791Z,5.30
2022-10-22T18:12:07.129Z,5.57
2022-10-22T18:14:52.275Z,5.32
2022-10-22T18:17:39.565Z,5.90
2022-10-22T18:20:25.392Z,6.50
2022-10-22T18:23:13.378Z,6.70
2022-10-22T18:25:58.196Z,7.00
2022-10-22T18:28:43.314Z,6.88
2022-10-22T18:31:30.159Z,6.60
2022-10-22T18:34:17.815Z,6.25
2022-10-22T18:37:05.176Z,6.90
2022-10-22T18:39:50.132Z,6.60
2022-10-22T18:42:37.777Z,6.30
2022-10-22T18:45:24.890Z,6.22
2022-10-22T18:48:10.072Z,6.35
2022-10-22T18:51:01.084Z,6.10
2022-10-22T18:53:59.187Z,6.30
2022-10-22T18:56:51.904Z,6.00
2022-10-22T18:59:37.026Z,6.38
2022-10-22T19:02:22.243Z,5.90
2022-10-22T19:05:07.935Z,5.40
2022-10-22T19:07:52.692Z,5.90
2022-10-22T19:10:38.491Z,5.50
2022-10-22T19:13:25.445Z,5.50
2022-10-22T19:16:18.306Z,5.60
2022-10-22T19:19:06.587Z,5.90
2022-10-22T19:21:52.058Z,6.60
2022-10-22T19:24:37.431Z,6.38
2022-10-22T19:27:22.364Z,6.47
2022-10-22T19:30:08.135Z,6.90
2022-10-22T19:32:52.972Z,6.40
2022-10-22T19:35:38.291Z,6.03
2022-10-22T19:38:27.832Z,6.57
2022-10-22T19:41:14.968Z,6.60
2022-10-22T19:44:00.377Z,6.57
2022-10-22T19:46:45.136Z,6.50
2022-10-22T19:49:30.372Z,6.17
2022-10-22T19:52:15.655Z,4.70
2022-10-22T19:55:00.728Z,4.05
2022-10-22T19:57:45.832Z,4.93
2022-10-22T20:00:31.997Z,4.75
2022-10-22T20:03:16.964Z,4.30
2022-10-22T20:06:03.374Z,5.25
2022-10-22T20:08:51.141Z,4.00
2022-10-22T20:11:39.106Z,4.72
2022-10-22T20:14:24.269Z,4.93
2022-10-22T20:17:09.216Z,4.40
2022-10-22T20:19:54.036Z,3.70
2022-10-22T20:22:39.117Z,4.60
2022-10-22T20:25:23.892Z,4.10
2022-10-22T20:28:09.151Z,3.90
2022-10-22T20:30:54.436Z,4.80
2022-10-22T20:33:39.645Z,4.20
2022-10-22T20:36:26.050Z,3.63
2022-10-22T20:39:14.486Z,4.07
2022-10-22T20:41:59.673Z,3.60
2022-10-22T20:44:44.452Z,4.40
2022-10-22T20:47:39.238Z,4.47
2022-10-22T20:50:34.374Z,4.13
2022-10-22T20:53:20.919Z,4.57
2022-10-22T20:56:06.764Z,4.70
2022-10-22T20:58:56.589Z,4.23
2022-10-22T21:01:46.755Z,4.30
2022-10-22T21:04:32.272Z,3.92
2022-10-22T21:07:17.206Z,3.80
2022-10-22T21:10:02.143Z,4.00
2022-10-22T21:12:47.059Z,3.87
2022-10-22T21:15:32.101Z,3.60
2022-10-22T21:18:17.140Z,3.60
2022-10-22T21:21:05.199Z,4.07
2022-10-22T21:23:50.231Z,3.70
2022-10-22T21:26:39.348Z,4.07
2022-10-22T21:29:24.211Z,3.92
2022-10-22T21:32:09.281Z,4.60
2022-10-22T21:34:54.340Z,4.40
2022-10-22T21:37:39.691Z,4.80
2022-10-22T21:40:27.433Z,4.50
2022-10-22T21:43:12.568Z,4.25
2022-10-22T21:46:07.924Z,4.53
2022-10-22T21:48:54.950Z,4.45
2022-10-22T21:51:40.104Z,4.60
2022-10-22T21:54:26.054Z,4.90
2022-10-22T21:57:11.187Z,4.72
2022-10-22T21:59:56.564Z,4.47
2022-10-22T22:02:42.013Z,5.13
2022-10-22T22:05:28.436Z,4.72
2022-10-22T22:08:14.950Z,4.03
2022-10-22T22:11:04.828Z,4.50
2022-10-22T22:13:51.086Z,4.25
2022-10-22T22:16:36.139Z,4.85
2022-10-22T22:19:21.256Z,4.85
2022-10-22T22:22:06.347Z,4.70
2022-10-22T22:24:51.215Z,4.60
2022-10-22T22:27:36.330Z,4.68
2022-10-22T22:30:21.413Z,4.85
2022-10-22T22:33:06.393Z,4.47
2022-10-22T22:35:51.471Z,4.73
2022-10-22T22:38:37.532Z,4.72
2022-10-22T22:41:23.260Z,5.10
2022-10-22T22:44:08.988Z,4.28
2022-10-22T22:46:53.961Z,5.07
2022-10-22T22:49:39.192Z,4.77
2022-10-22T22:52:24.247Z,4.68
2022-10-22T22:55:09.616Z,4.90
2022-10-22T22:57:54.789Z,4.32
2022-10-22T23:03:29.746Z,4.47
2022-10-22T23:06:15.889Z,4.85
2022-10-22T23:09:00.818Z,4.90
2022-10-22T23:11:47.098Z,4.20
2022-10-22T23:14:31.957Z,4.95
2022-10-22T23:17:18.065Z,4.60
2022-10-22T23:20:03.478Z,4.97
2022-10-22T23:22:48.520Z,4.82
2022-10-22T23:25:33.808Z,4.55
2022-10-22T23:28:19.045Z,4.47
2022-10-22T23:31:07.734Z,4.57
2022-10-22T23:33:52.613Z,4.43
2022-10-22T23:36:38.947Z,4.40
2022-10-22T23:39:26.057Z,5.00
2022-10-22T23:42:10.947Z,4.43
2022-10-22T23:44:56.081Z,4.60
2022-10-22T23:47:41.266Z,5.03
2022-10-22T23:50:26.903Z,4.38
2022-10-22T23:53:12.507Z,4.53
2022-10-22T23:55:57.696Z,4.38
2022-10-22T23:58:42.882Z,4.30
